If you wish to contribute or participate in the discussions about articles you are invited to join SKYbrary as a registered user

 Actions

Antonio Maceo Airport

From SKYbrary Wiki

MUCU
Airport
ICAO: MUCU – IATA: SCU
Summary
Name Antonio Maceo Airport
Region South America and Caribbean
Territory Cuba CU.gif
Location Santiago de Cuba, Santiago de Cuba
Serving Santiago de Cuba
Elevation 75.895 m
249 ft
249 ft75.895 m
Coordinates 19° 58' 12.00" N, 75° 50' 8.00" W
Runways
Designator Length Width Surface ROPS
9/27 4000 m13,123.36 ft
45 m147.638 ft
ASP /
18/36 1296 m4,251.969 ft
45 m147.638 ft
ASP /


METAR
Observation MUCU 141451Z 14010KT 9000 FEW020 29/19 Q1019
Station Santiago De Cuba, Oriente
Date/Time 14 December 2018 14:51:00
Wind direction 140°
Wind speed 10 kts
Lowest cloud amount few clouds
Temperature 29°C
Dew point 19°C
Humidity 54%
QNH 1019 hPa
Weather condition n/a

BS
Tag(s) Bird Strike
WX
Tag(s) Cumulonimbus
Tropical Revolving Storm

International airport serving Santiago de Cuba, Cuba.

Climatology

Tropical Savanna climate (Köppen climate classification Aw) - monthly mean temperature above 18°C64.4 °F
291.15 K
524.07 °R
in every month of the year and a pronounced dry season.

The dry season is in Feb/Mar. The Hurricane season lasts from May to December with the rainy season extending into January.

Maps

Terrain

Loading map...

Airport Layout

Loading map...


Accidents & Serious Incidents at or in vicinity of MUCU

None on SKYbrary